Time;durP1;ratioP1;P1;durP2;ratioP2;P2;SDS_P1;SDS_P2;PMS_P1;PMS_P2;Temp;Humidity;BMP_temperature;BMP_pressure;BME280_temperature;BME280_humidity;BME280_pressure;Samples;Min_cycle;Max_cycle;Signal;HPM_P1;HPM_P2
2022/12/11 00:00:33;;;;;;;;;;;1.70;99.90;;;;;;8382052;28;20403;-70
2022/12/11 00:04:35;;;;;;;;;;;1.70;99.90;;;;;;8381668;28;20415;-70
2022/12/11 00:08:36;;;;;;;;;;;1.70;99.90;;;;;;8385858;28;19964;-70
2022/12/11 00:12:38;;;;;;;;;;;1.80;99.90;;;;;;8389370;28;19928;-71
2022/12/11 00:16:40;;;;;;;;;;;1.80;99.90;;;;;;8358746;28;20364;-70
2022/12/11 00:20:42;;;;;;;;;;;1.80;99.90;;;;;;8388721;28;20042;-71
2022/12/11 00:24:43;;;;;;;;;;;1.80;99.90;;;;;;8366159;28;20399;-71
2022/12/11 00:28:46;;;;;;;;;;;1.80;99.90;;;;;;8383266;28;20296;-70
2022/12/11 00:32:50;;;;;;;;;;;1.80;99.90;;;;;;8373937;28;19924;-71
2022/12/11 00:36:51;;;;;;;;;;;1.80;99.90;;;;;;8367889;28;19925;-70
2022/12/11 00:40:56;;;;;;;;;;;1.90;99.90;;;;;;8398571;28;19924;-70
2022/12/11 00:44:58;;;;;;;;;;;1.80;99.90;;;;;;8364340;28;20443;-70
2022/12/11 00:48:59;;;;;;;;;;;1.90;99.90;;;;;;8386917;28;19975;-70
2022/12/11 00:53:02;;;;;;;;;;;1.90;99.90;;;;;;8382534;28;19925;-70
2022/12/11 00:57:04;;;;;;;;;;;1.90;99.90;;;;;;8373060;28;20035;-70
2022/12/11 01:01:06;;;;;;;;;;;1.90;99.90;;;;;;8366371;28;20011;-70
2022/12/11 01:05:08;;;;;;;;;;;1.90;99.90;;;;;;8379091;28;19947;-70
2022/12/11 01:13:30;;;;;;;;;;;1.90;99.90;;;;;;8381888;28;19935;-70
2022/12/11 01:17:32;;;;;;;;;;;1.90;99.90;;;;;;8389370;28;19930;-70
2022/12/11 01:21:34;;;;;;;;;;;1.90;99.90;;;;;;8377472;28;20356;-70
2022/12/11 01:25:37;;;;;;;;;;;1.80;99.90;;;;;;8378563;28;19928;-70
2022/12/11 01:29:38;;;;;;;;;;;1.80;99.90;;;;;;8381619;28;20283;-70
2022/12/11 01:33:40;;;;;;;;;;;1.80;99.90;;;;;;8365039;28;19928;-70
2022/12/11 01:37:42;;;;;;;;;;;1.80;99.90;;;;;;8373548;28;19929;-70
2022/12/11 01:41:43;;;;;;;;;;;1.80;99.90;;;;;;8366626;28;19979;-70
2022/12/11 01:45:46;;;;;;;;;;;1.80;99.90;;;;;;8396990;28;19971;-71
2022/12/11 01:49:48;;;;;;;;;;;1.80;99.90;;;;;;8384044;28;19977;-70
2022/12/11 01:53:52;;;;;;;;;;;1.80;99.90;;;;;;8380211;28;21487;-70
2022/12/11 01:57:54;;;;;;;;;;;1.80;99.90;;;;;;8386984;28;19925;-70
2022/12/11 02:01:58;;;;;;;;;;;1.80;99.90;;;;;;8358948;28;20383;-70
2022/12/11 02:06:00;;;;;;;;;;;1.90;99.90;;;;;;8382815;28;19926;-70
2022/12/11 02:10:03;;;;;;;;;;;1.90;99.90;;;;;;8377858;28;20323;-71
2022/12/11 02:14:16;;;;;;;;;;;1.90;99.90;;;;;;8384413;28;19924;-71
2022/12/11 02:18:17;;;;;;;;;;;1.90;99.90;;;;;;8369379;28;19952;-70
2022/12/11 02:22:27;;;;;;;;;;;1.90;99.90;;;;;;8355270;28;19931;-71
2022/12/11 02:26:48;;;;;;;;;;;1.90;99.90;;;;;;8395133;28;20016;-70
2022/12/11 02:30:53;;;;;;;;;;;2.00;99.90;;;;;;8369780;28;19931;-70
2022/12/11 02:34:58;;;;;;;;;;;2.00;99.90;;;;;;8374539;28;19925;-70
2022/12/11 02:39:00;;;;;;;;;;;2.00;99.90;;;;;;8358224;28;19925;-70
2022/12/11 02:43:04;;;;;;;;;;;2.00;99.90;;;;;;8370577;28;19967;-70
2022/12/11 02:47:09;;;;;;;;;;;2.00;99.90;;;;;;8377551;28;19928;-70
2022/12/11 02:51:12;;;;;;;;;;;2.00;99.90;;;;;;8381282;28;19936;-70
2022/12/11 02:55:15;;;;;;;;;;;2.10;99.90;;;;;;8360955;28;19925;-70
2022/12/11 02:59:19;;;;;;;;;;;2.10;99.90;;;;;;8382341;28;19967;-71
2022/12/11 03:03:21;;;;;;;;;;;2.10;99.90;;;;;;8350085;28;19928;-71
2022/12/11 03:07:32;;;;;;;;;;;2.10;99.90;;;;;;8365463;28;19956;-71
2022/12/11 03:11:34;;;;;;;;;;;2.10;99.90;;;;;;8380534;28;19964;-71
2022/12/11 03:15:54;;;;;;;;;;;2.10;99.90;;;;;;8370967;28;20376;-71
2022/12/11 03:19:55;;;;;;;;;;;2.10;99.90;;;;;;8364442;28;20032;-70
2022/12/11 03:24:04;;;;;;;;;;;2.10;99.90;;;;;;8379517;28;19968;-71
2022/12/11 03:28:14;;;;;;;;;;;2.10;99.90;;;;;;8385158;28;19932;-71
2022/12/11 03:32:18;;;;;;;;;;;2.10;99.90;;;;;;8367265;28;19925;-71
2022/12/11 03:36:22;;;;;;;;;;;2.10;99.90;;;;;;8379912;28;19928;-70
2022/12/11 03:40:26;;;;;;;;;;;2.10;99.90;;;;;;8378635;28;19928;-71
2022/12/11 03:44:29;;;;;;;;;;;2.10;99.90;;;;;;8371837;28;19929;-70
2022/12/11 03:48:32;;;;;;;;;;;2.10;99.90;;;;;;8378167;28;19928;-71
2022/12/11 03:52:34;;;;;;;;;;;2.10;99.90;;;;;;8383373;28;19925;-71
2022/12/11 03:56:42;;;;;;;;;;;2.10;99.90;;;;;;8363645;28;20049;-71
2022/12/11 04:00:43;;;;;;;;;;;2.10;99.90;;;;;;8371859;28;19939;-70
2022/12/11 04:04:45;;;;;;;;;;;2.10;99.90;;;;;;8387043;28;19947;-71
2022/12/11 04:08:47;;;;;;;;;;;2.10;99.90;;;;;;8385677;28;20372;-70
2022/12/11 04:12:48;;;;;;;;;;;2.00;99.90;;;;;;8369297;28;20337;-71
2022/12/11 04:16:50;;;;;;;;;;;2.00;99.90;;;;;;8386991;28;20414;-71
2022/12/11 04:25:13;;;;;;;;;;;2.00;99.90;;;;;;8375146;28;19987;-71
2022/12/11 04:29:14;;;;;;;;;;;2.00;99.90;;;;;;8396080;28;20368;-71
2022/12/11 04:33:16;;;;;;;;;;;2.00;99.90;;;;;;8394755;28;20388;-71
2022/12/11 04:37:18;;;;;;;;;;;2.00;99.90;;;;;;8364737;28;19936;-71
2022/12/11 04:41:19;;;;;;;;;;;2.00;99.90;;;;;;8392347;28;20018;-71
2022/12/11 04:45:21;;;;;;;;;;;2.00;99.90;;;;;;8384970;28;19932;-70
2022/12/11 04:49:23;;;;;;;;;;;2.00;99.90;;;;;;8384219;28;20384;-71
2022/12/11 04:53:24;;;;;;;;;;;2.00;99.90;;;;;;8394510;28;19967;-71
2022/12/11 04:57:26;;;;;;;;;;;2.00;99.90;;;;;;8377128;28;20402;-71
2022/12/11 05:01:28;;;;;;;;;;;2.00;99.90;;;;;;8361434;28;19932;-71
2022/12/11 05:05:30;;;;;;;;;;;2.00;99.90;;;;;;8369336;28;20303;-71
2022/12/11 05:09:31;;;;;;;;;;;2.00;99.90;;;;;;8391762;28;20011;-71
2022/12/11 05:13:33;;;;;;;;;;;1.90;99.90;;;;;;8392613;28;19971;-70
2022/12/11 05:17:35;;;;;;;;;;;2.00;99.90;;;;;;8396398;28;19975;-71
2022/12/11 05:21:36;;;;;;;;;;;2.00;99.90;;;;;;8405254;28;19936;-70
2022/12/11 05:25:38;;;;;;;;;;;2.00;99.90;;;;;;8359586;28;20265;-71
2022/12/11 05:29:40;;;;;;;;;;;2.00;99.90;;;;;;8379494;28;19979;-71
2022/12/11 05:33:43;;;;;;;;;;;2.00;99.90;;;;;;8375897;28;20388;-70
2022/12/11 05:37:46;;;;;;;;;;;2.00;99.90;;;;;;8352443;28;20216;-70
2022/12/11 05:41:48;;;;;;;;;;;1.90;99.90;;;;;;8380838;28;20402;-70
2022/12/11 05:45:50;;;;;;;;;;;2.00;99.90;;;;;;8391824;28;19924;-71
2022/12/11 05:49:51;;;;;;;;;;;2.00;99.90;;;;;;8386150;28;19968;-70
2022/12/11 05:53:54;;;;;;;;;;;2.00;99.90;;;;;;8386622;28;19937;-70
2022/12/11 05:57:55;;;;;;;;;;;1.90;99.90;;;;;;8386263;28;19925;-70
2022/12/11 06:01:57;;;;;;;;;;;1.90;99.90;;;;;;8379616;28;19979;-70
2022/12/11 06:06:03;;;;;;;;;;;1.90;99.90;;;;;;8371992;28;20293;-70
2022/12/11 06:10:05;;;;;;;;;;;1.90;99.90;;;;;;8365567;28;19931;-70
2022/12/11 06:14:07;;;;;;;;;;;1.90;99.90;;;;;;8381466;28;19972;-70
2022/12/11 06:18:08;;;;;;;;;;;1.90;99.90;;;;;;8378386;28;19924;-70
2022/12/11 06:22:10;;;;;;;;;;;1.90;99.90;;;;;;8374488;28;19931;-71
2022/12/11 06:26:12;;;;;;;;;;;1.90;99.90;;;;;;8368310;28;20373;-71
2022/12/11 06:30:15;;;;;;;;;;;1.90;99.90;;;;;;8378518;28;19932;-70
2022/12/11 06:34:17;;;;;;;;;;;2.00;99.90;;;;;;8374757;28;19933;-70
2022/12/11 06:38:18;;;;;;;;;;;1.90;99.90;;;;;;8374940;28;19931;-70
2022/12/11 06:42:20;;;;;;;;;;;1.90;99.90;;;;;;8358933;28;19925;-71
2022/12/11 06:46:21;;;;;;;;;;;1.90;99.90;;;;;;8391753;28;20291;-70
2022/12/11 06:50:23;;;;;;;;;;;1.90;99.90;;;;;;8393743;28;19925;-70
2022/12/11 06:54:26;;;;;;;;;;;1.90;99.90;;;;;;8402350;28;20668;-70
2022/12/11 06:58:27;;;;;;;;;;;1.90;99.90;;;;;;8378660;28;20307;-71
2022/12/11 07:02:29;;;;;;;;;;;1.90;99.90;;;;;;8378982;28;20387;-70
2022/12/11 07:06:31;;;;;;;;;;;1.90;99.90;;;;;;8351755;28;19935;-70
2022/12/11 07:10:32;;;;;;;;;;;1.90;99.90;;;;;;8366789;28;19960;-70
2022/12/11 07:14:34;;;;;;;;;;;1.90;99.90;;;;;;8387500;28;20333;-70
2022/12/11 07:18:40;;;;;;;;;;;1.90;99.90;;;;;;8373559;28;19924;-70
2022/12/11 07:22:41;;;;;;;;;;;1.90;99.90;;;;;;8371344;28;19931;-70
2022/12/11 07:26:47;;;;;;;;;;;1.90;99.90;;;;;;8372733;28;19924;-70
2022/12/11 07:30:48;;;;;;;;;;;1.90;99.90;;;;;;8375280;28;20403;-70
2022/12/11 07:34:50;;;;;;;;;;;1.90;99.90;;;;;;8390777;28;19963;-70
2022/12/11 07:38:52;;;;;;;;;;;1.80;99.90;;;;;;8395512;28;19985;-70
2022/12/11 07:42:54;;;;;;;;;;;1.80;99.90;;;;;;8398531;28;20359;-70
2022/12/11 07:46:56;;;;;;;;;;;1.80;99.90;;;;;;8388264;28;20299;-70
2022/12/11 07:51:11;;;;;;;;;;;1.80;99.90;;;;;;8384310;28;19928;-70
2022/12/11 07:55:13;;;;;;;;;;;1.80;99.90;;;;;;8387013;28;20399;-70
2022/12/11 07:59:15;;;;;;;;;;;1.80;99.90;;;;;;8385134;28;19930;-70
2022/12/11 08:03:17;;;;;;;;;;;1.80;99.90;;;;;;8366566;28;19956;-70
2022/12/11 08:07:18;;;;;;;;;;;1.80;99.90;;;;;;8373802;28;19924;-70
2022/12/11 08:11:20;;;;;;;;;;;1.70;99.90;;;;;;8383657;28;19940;-70
2022/12/11 08:15:22;;;;;;;;;;;1.80;99.90;;;;;;8374273;28;19997;-70
2022/12/11 08:19:23;;;;;;;;;;;1.80;99.90;;;;;;8391682;28;20023;-70
2022/12/11 08:23:25;;;;;;;;;;;1.70;99.90;;;;;;8374025;28;19969;-70
2022/12/11 08:27:26;;;;;;;;;;;1.70;99.90;;;;;;8378373;28;20398;-70
2022/12/11 08:31:28;;;;;;;;;;;1.70;99.90;;;;;;8388008;28;20395;-70
2022/12/11 08:35:30;;;;;;;;;;;1.80;99.90;;;;;;8384533;28;20011;-70
2022/12/11 08:39:31;;;;;;;;;;;1.80;99.90;;;;;;8396928;28;19936;-70
2022/12/11 08:43:33;;;;;;;;;;;1.80;99.90;;;;;;8392228;28;19924;-70
2022/12/11 08:47:35;;;;;;;;;;;1.80;99.90;;;;;;8366059;28;20422;-70
2022/12/11 08:51:37;;;;;;;;;;;1.80;99.90;;;;;;8396128;28;19972;-70
2022/12/11 08:55:38;;;;;;;;;;;1.90;99.90;;;;;;8395543;28;19929;-70
2022/12/11 08:59:40;;;;;;;;;;;1.90;99.90;;;;;;8369869;28;20476;-70
2022/12/11 09:03:42;;;;;;;;;;;2.00;99.90;;;;;;8383084;28;19924;-70
2022/12/11 09:07:43;;;;;;;;;;;2.00;99.90;;;;;;8376049;28;19924;-70
2022/12/11 09:16:48;;;;;;;;;;;2.10;99.90;;;;;;8392260;28;19942;-70
2022/12/11 09:20:56;;;;;;;;;;;2.20;99.90;;;;;;8393311;28;19971;-70
2022/12/11 09:24:58;;;;;;;;;;;2.20;99.90;;;;;;8376311;28;20400;-70
2022/12/11 09:29:02;;;;;;;;;;;2.20;99.90;;;;;;8378453;28;19938;-70
2022/12/11 09:33:03;;;;;;;;;;;2.20;99.90;;;;;;8391646;28;19971;-70
2022/12/11 09:37:05;;;;;;;;;;;2.20;99.90;;;;;;8394344;28;20277;-70
2022/12/11 09:41:25;;;;;;;;;;;2.20;99.90;;;;;;8391236;28;20350;-71
2022/12/11 09:45:27;;;;;;;;;;;2.20;99.90;;;;;;8386105;28;19929;-70
2022/12/11 09:49:40;;;;;;;;;;;2.30;99.90;;;;;;8370428;28;20347;-71
2022/12/11 09:53:41;;;;;;;;;;;2.30;99.90;;;;;;8385218;28;19932;-70
2022/12/11 09:57:52;;;;;;;;;;;2.30;99.90;;;;;;8392821;28;19986;-71
2022/12/11 10:02:13;;;;;;;;;;;2.30;99.90;;;;;;8362648;28;19955;-70
2022/12/11 10:06:19;;;;;;;;;;;2.30;99.90;;;;;;8391294;28;19925;-70
2022/12/11 10:10:20;;;;;;;;;;;2.30;99.90;;;;;;8376368;28;19972;-70
2022/12/11 10:14:37;;;;;;;;;;;2.30;99.90;;;;;;8377087;28;19932;-70
2022/12/11 10:18:39;;;;;;;;;;;2.40;99.90;;;;;;8370642;28;19940;-70
2022/12/11 10:22:42;;;;;;;;;;;2.30;99.90;;;;;;8385901;28;19924;-71
2022/12/11 10:26:45;;;;;;;;;;;2.40;99.90;;;;;;8393451;28;19925;-70
2022/12/11 10:30:57;;;;;;;;;;;2.40;99.90;;;;;;8374536;28;19980;-71
2022/12/11 10:35:01;;;;;;;;;;;2.40;99.90;;;;;;8382465;28;19982;-71
2022/12/11 10:39:09;;;;;;;;;;;2.40;99.90;;;;;;8391327;28;20276;-71
2022/12/11 10:43:11;;;;;;;;;;;2.40;99.90;;;;;;8373309;28;19932;-71
2022/12/11 10:47:16;;;;;;;;;;;2.50;99.90;;;;;;8381267;28;20545;-70
2022/12/11 10:51:19;;;;;;;;;;;2.50;99.90;;;;;;8387192;28;19964;-71
2022/12/11 10:55:23;;;;;;;;;;;2.50;99.90;;;;;;8364774;28;19933;-71
2022/12/11 10:59:34;;;;;;;;;;;2.60;99.90;;;;;;8366094;28;19925;-71
2022/12/11 11:03:42;;;;;;;;;;;2.60;99.90;;;;;;8373530;28;19932;-70
2022/12/11 11:07:44;;;;;;;;;;;2.60;99.90;;;;;;8376285;28;19932;-71
2022/12/11 11:11:48;;;;;;;;;;;2.70;99.90;;;;;;8381339;28;19924;-71
2022/12/11 11:15:58;;;;;;;;;;;2.70;99.90;;;;;;8370560;28;19940;-71
2022/12/11 11:20:05;;;;;;;;;;;2.70;99.90;;;;;;8382579;28;20360;-71
2022/12/11 11:34:18;;;;;;;;;;;2.80;99.90;;;;;;8383308;28;19919;-71
2022/12/11 11:38:32;;;;;;;;;;;2.80;99.90;;;;;;8369898;28;19935;-70
2022/12/11 11:42:44;;;;;;;;;;;2.80;99.90;;;;;;8362483;28;20011;-71
2022/12/11 11:46:53;;;;;;;;;;;2.80;99.90;;;;;;8383278;28;20010;-71
2022/12/11 11:50:56;;;;;;;;;;;2.80;99.90;;;;;;8374549;28;19933;-70
2022/12/11 11:55:15;;;;;;;;;;;2.70;99.90;;;;;;8358809;28;20398;-71
2022/12/11 11:59:40;;;;;;;;;;;2.70;99.90;;;;;;8362876;28;19925;-71
2022/12/11 12:03:42;;;;;;;;;;;2.70;99.90;;;;;;8375870;28;20007;-70
2022/12/11 12:08:02;;;;;;;;;;;2.70;99.90;;;;;;8359729;28;19925;-70
2022/12/11 12:12:21;;;;;;;;;;;2.70;99.90;;;;;;8382632;28;19929;-70
2022/12/11 12:16:46;;;;;;;;;;;2.70;99.90;;;;;;8372961;28;20300;-70
2022/12/11 12:21:16;;;;;;;;;;;2.70;99.90;;;;;;8392697;28;19925;-70
2022/12/11 12:25:38;;;;;;;;;;;2.70;99.90;;;;;;8389256;28;19936;-71
2022/12/11 12:29:46;;;;;;;;;;;2.70;99.90;;;;;;8338418;28;19931;-70
2022/12/11 12:33:51;;;;;;;;;;;2.60;99.90;;;;;;8382031;28;20322;-70
2022/12/11 12:37:52;;;;;;;;;;;2.60;99.90;;;;;;8384239;28;19928;-70
2022/12/11 12:41:57;;;;;;;;;;;2.60;99.90;;;;;;8388203;28;19963;-70
2022/12/11 12:46:04;;;;;;;;;;;2.60;99.90;;;;;;8376299;28;19929;-71
2022/12/11 12:50:10;;;;;;;;;;;2.60;99.90;;;;;;8385388;28;19931;-70
2022/12/11 12:54:15;;;;;;;;;;;2.60;99.90;;;;;;8374717;28;19932;-70
2022/12/11 12:58:29;;;;;;;;;;;2.60;99.90;;;;;;8390995;28;19924;-70
2022/12/11 13:02:31;;;;;;;;;;;2.60;99.90;;;;;;8372902;28;19929;-70
2022/12/11 13:06:36;;;;;;;;;;;2.60;99.90;;;;;;8368108;28;20403;-70
2022/12/11 13:10:39;;;;;;;;;;;2.60;99.90;;;;;;8380673;28;19955;-70
2022/12/11 13:14:41;;;;;;;;;;;2.60;99.90;;;;;;8385726;28;19929;-70
2022/12/11 13:18:43;;;;;;;;;;;2.60;99.90;;;;;;8374346;28;19924;-70
2022/12/11 13:22:50;;;;;;;;;;;2.60;99.90;;;;;;8397650;28;20300;-70
2022/12/11 13:26:52;;;;;;;;;;;2.60;99.90;;;;;;8376091;28;19925;-70
2022/12/11 13:30:57;;;;;;;;;;;2.60;99.90;;;;;;8391780;28;19924;-70
2022/12/11 13:35:02;;;;;;;;;;;2.60;99.90;;;;;;8392057;28;19924;-70
2022/12/11 13:39:07;;;;;;;;;;;2.70;99.90;;;;;;8374078;28;19928;-70
2022/12/11 13:43:16;;;;;;;;;;;2.70;99.90;;;;;;8391239;28;20372;-70
2022/12/11 13:47:19;;;;;;;;;;;2.70;99.90;;;;;;8388177;28;19925;-70
2022/12/11 13:51:22;;;;;;;;;;;2.70;99.90;;;;;;8387350;28;19970;-70
2022/12/11 13:55:26;;;;;;;;;;;2.70;99.90;;;;;;8371734;28;19932;-70
2022/12/11 13:59:29;;;;;;;;;;;2.70;99.90;;;;;;8382410;28;20300;-70
2022/12/11 14:03:31;;;;;;;;;;;2.80;99.90;;;;;;8368336;28;19935;-70
2022/12/11 14:07:35;;;;;;;;;;;2.80;99.90;;;;;;8387719;28;20365;-70
2022/12/11 14:11:39;;;;;;;;;;;2.80;99.90;;;;;;8390355;28;19939;-70
2022/12/11 14:15:43;;;;;;;;;;;2.80;99.90;;;;;;8393871;28;20350;-70
2022/12/11 14:19:47;;;;;;;;;;;2.80;99.90;;;;;;8389209;28;20356;-70
2022/12/11 14:23:53;;;;;;;;;;;2.80;99.90;;;;;;8396293;28;19968;-71
2022/12/11 14:27:55;;;;;;;;;;;2.80;99.90;;;;;;8393975;28;19978;-70
2022/12/11 14:32:01;;;;;;;;;;;2.80;99.90;;;;;;8387309;28;19947;-71
2022/12/11 14:36:04;;;;;;;;;;;2.80;99.90;;;;;;8374145;28;19931;-70
2022/12/11 14:40:08;;;;;;;;;;;2.80;99.90;;;;;;8364022;28;19959;-70
2022/12/11 14:44:13;;;;;;;;;;;2.80;99.90;;;;;;8383039;28;19967;-70
2022/12/11 14:48:27;;;;;;;;;;;2.80;99.90;;;;;;8368737;28;19955;-70
2022/12/11 14:52:32;;;;;;;;;;;2.80;99.90;;;;;;8389862;28;20403;-71
2022/12/11 14:56:34;;;;;;;;;;;2.80;99.90;;;;;;8376383;28;19924;-70
2022/12/11 15:00:36;;;;;;;;;;;2.70;99.90;;;;;;8383066;28;20383;-70
2022/12/11 15:04:38;;;;;;;;;;;2.70;99.90;;;;;;8397824;28;20805;-71
2022/12/11 15:08:39;;;;;;;;;;;2.70;99.90;;;;;;8376548;28;20015;-70
2022/12/11 15:12:44;;;;;;;;;;;2.70;99.90;;;;;;8387129;28;19925;-70
2022/12/11 15:16:47;;;;;;;;;;;2.70;99.90;;;;;;8386693;28;20287;-71
2022/12/11 15:20:53;;;;;;;;;;;2.70;99.90;;;;;;8371111;28;19928;-70
2022/12/11 15:24:55;;;;;;;;;;;2.60;99.90;;;;;;8382330;28;20019;-70
2022/12/11 15:29:01;;;;;;;;;;;2.60;99.90;;;;;;8391787;28;20291;-70
2022/12/11 15:33:03;;;;;;;;;;;2.60;99.90;;;;;;8385921;28;20307;-70
2022/12/11 15:37:16;;;;;;;;;;;2.60;99.90;;;;;;8370023;28;20003;-70
2022/12/11 15:41:24;;;;;;;;;;;2.60;99.90;;;;;;8393124;28;19994;-71
2022/12/11 15:45:29;;;;;;;;;;;2.70;99.90;;;;;;8384680;28;20015;-70
2022/12/11 15:49:30;;;;;;;;;;;2.70;99.90;;;;;;8393733;28;20387;-71
2022/12/11 15:53:32;;;;;;;;;;;2.70;99.90;;;;;;8373751;28;20022;-70
2022/12/11 15:57:34;;;;;;;;;;;2.70;99.90;;;;;;8399236;28;19995;-70
2022/12/11 16:01:36;;;;;;;;;;;2.70;99.90;;;;;;8375784;28;20296;-71
2022/12/11 16:05:38;;;;;;;;;;;2.60;99.90;;;;;;8375794;28;20023;-70
2022/12/11 16:09:39;;;;;;;;;;;2.60;99.90;;;;;;8348718;28;19939;-70
2022/12/11 16:13:41;;;;;;;;;;;2.60;99.90;;;;;;8365878;28;19948;-70
2022/12/11 16:17:43;;;;;;;;;;;2.70;99.90;;;;;;8366251;28;19928;-71
2022/12/11 16:21:44;;;;;;;;;;;2.70;99.90;;;;;;8365707;28;19929;-70
2022/12/11 16:25:46;;;;;;;;;;;2.70;99.90;;;;;;8365963;28;19925;-70
2022/12/11 16:29:48;;;;;;;;;;;2.70;99.90;;;;;;8365648;28;19932;-71
2022/12/11 16:33:50;;;;;;;;;;;2.70;99.90;;;;;;8363468;28;19932;-70
2022/12/11 16:37:52;;;;;;;;;;;2.70;99.90;;;;;;8358863;28;20288;-70
2022/12/11 16:41:53;;;;;;;;;;;2.70;99.90;;;;;;8366963;28;19967;-71
2022/12/11 16:45:55;;;;;;;;;;;2.70;99.90;;;;;;8361958;28;20319;-71
2022/12/11 16:49:57;;;;;;;;;;;2.70;99.90;;;;;;8366156;28;19982;-70
2022/12/11 16:53:59;;;;;;;;;;;2.70;99.90;;;;;;8367163;28;19925;-70
2022/12/11 16:58:00;;;;;;;;;;;2.70;99.90;;;;;;8363100;28;19967;-70
2022/12/11 17:02:02;;;;;;;;;;;2.60;99.90;;;;;;8366300;28;19931;-70
2022/12/11 17:06:05;;;;;;;;;;;2.50;99.90;;;;;;8361139;28;19924;-70
2022/12/11 17:10:07;;;;;;;;;;;2.50;99.90;;;;;;8364515;28;20372;-70
2022/12/11 17:14:08;;;;;;;;;;;2.40;99.90;;;;;;8364591;28;19925;-70
2022/12/11 17:18:11;;;;;;;;;;;2.40;99.90;;;;;;8361162;28;19932;-70
2022/12/11 17:22:12;;;;;;;;;;;2.40;99.90;;;;;;8360594;28;19991;-70
2022/12/11 17:26:14;;;;;;;;;;;2.40;99.90;;;;;;8360070;28;20448;-70
2022/12/11 17:30:16;;;;;;;;;;;2.40;99.90;;;;;;8363141;28;20015;-71
2022/12/11 17:34:18;;;;;;;;;;;2.40;99.90;;;;;;8362435;28;20296;-70
2022/12/11 17:38:19;;;;;;;;;;;2.40;99.90;;;;;;8347077;28;19932;-71
2022/12/11 17:42:21;;;;;;;;;;;2.40;99.90;;;;;;8342249;28;19932;-70
2022/12/11 17:46:23;;;;;;;;;;;2.40;99.90;;;;;;8349434;28;20026;-70
2022/12/11 17:50:25;;;;;;;;;;;2.40;99.90;;;;;;8365670;28;19932;-70
2022/12/11 17:54:26;;;;;;;;;;;2.40;99.90;;;;;;8358903;28;19947;-70
2022/12/11 17:58:28;;;;;;;;;;;2.40;99.90;;;;;;8362431;28;20521;-70
2022/12/11 18:02:30;;;;;;;;;;;2.40;99.90;;;;;;8360525;28;19939;-70
2022/12/11 18:06:32;;;;;;;;;;;2.30;99.90;;;;;;8358145;28;20771;-70
2022/12/11 18:10:36;;;;;;;;;;;2.30;99.90;;;;;;8337206;28;19924;-70
2022/12/11 18:14:38;;;;;;;;;;;2.30;99.90;;;;;;8361729;28;19935;-70
2022/12/11 18:18:40;;;;;;;;;;;2.30;99.90;;;;;;8356591;28;20012;-70
2022/12/11 18:22:42;;;;;;;;;;;2.30;99.90;;;;;;8336602;28;20699;-70
2022/12/11 18:26:44;;;;;;;;;;;2.30;99.90;;;;;;8354650;28;20391;-70
2022/12/11 18:30:45;;;;;;;;;;;2.20;99.90;;;;;;8359265;28;19932;-71
2022/12/11 18:34:47;;;;;;;;;;;2.20;99.90;;;;;;8338434;28;19931;-70
2022/12/11 18:38:49;;;;;;;;;;;2.10;99.90;;;;;;8340155;28;20360;-71
2022/12/11 18:42:50;;;;;;;;;;;2.10;99.90;;;;;;8342379;28;20117;-70
2022/12/11 18:46:52;;;;;;;;;;;2.10;99.90;;;;;;8340029;28;20391;-70
2022/12/11 18:50:54;;;;;;;;;;;2.10;99.90;;;;;;8360514;28;19939;-70
2022/12/11 18:54:55;;;;;;;;;;;2.10;99.90;;;;;;8365381;28;20291;-70
2022/12/11 18:58:57;;;;;;;;;;;2.10;99.90;;;;;;8356083;28;20027;-70
2022/12/11 19:02:59;;;;;;;;;;;2.10;99.90;;;;;;8362630;28;19979;-71
2022/12/11 19:07:00;;;;;;;;;;;2.10;99.90;;;;;;8340069;28;20364;-70
2022/12/11 19:11:02;;;;;;;;;;;2.10;99.90;;;;;;8340307;28;19964;-71
2022/12/11 19:15:04;;;;;;;;;;;2.10;99.90;;;;;;8355228;28;19928;-70
2022/12/11 19:19:10;;;;;;;;;;;2.00;99.90;;;;;;8365364;28;20646;-71
2022/12/11 19:23:12;;;;;;;;;;;2.10;99.90;;;;;;8361211;28;19939;-70
2022/12/11 19:27:13;;;;;;;;;;;2.10;99.90;;;;;;8366570;28;20168;-71
2022/12/11 19:31:17;;;;;;;;;;;2.10;99.90;;;;;;8366520;28;19929;-70
2022/12/11 19:35:18;;;;;;;;;;;2.10;99.90;;;;;;8348247;28;19925;-70
2022/12/11 19:39:20;;;;;;;;;;;2.10;99.90;;;;;;8365576;28;19933;-70
2022/12/11 19:43:22;;;;;;;;;;;2.00;99.90;;;;;;8364674;28;19967;-71
2022/12/11 19:47:23;;;;;;;;;;;2.10;99.90;;;;;;8367199;28;19963;-70
2022/12/11 19:51:27;;;;;;;;;;;2.10;99.90;;;;;;8350154;28;19924;-71
2022/12/11 19:55:29;;;;;;;;;;;2.10;99.90;;;;;;8346480;28;20388;-71
2022/12/11 19:59:30;;;;;;;;;;;2.10;99.90;;;;;;8349497;28;19936;-71
2022/12/11 20:03:33;;;;;;;;;;;2.10;99.90;;;;;;8368068;28;19940;-71
2022/12/11 20:07:34;;;;;;;;;;;2.10;99.90;;;;;;8363676;28;19929;-70
2022/12/11 20:11:37;;;;;;;;;;;2.10;99.90;;;;;;8360337;28;20042;-71
2022/12/11 20:15:39;;;;;;;;;;;2.10;99.90;;;;;;8364933;28;19931;-71
2022/12/11 20:19:41;;;;;;;;;;;2.10;99.90;;;;;;8361520;28;19936;-70
2022/12/11 20:23:43;;;;;;;;;;;2.10;99.90;;;;;;8364630;28;20019;-70
2022/12/11 20:27:44;;;;;;;;;;;2.10;99.90;;;;;;8361228;28;20380;-70
2022/12/11 20:31:48;;;;;;;;;;;2.10;99.90;;;;;;8363800;28;19963;-71
2022/12/11 20:35:50;;;;;;;;;;;2.10;99.90;;;;;;8342669;28;20011;-70
2022/12/11 20:39:51;;;;;;;;;;;2.10;99.90;;;;;;8364769;28;19933;-70
2022/12/11 20:43:53;;;;;;;;;;;2.10;99.90;;;;;;8365733;28;19932;-70
2022/12/11 20:47:54;;;;;;;;;;;2.10;99.90;;;;;;8364151;28;20023;-70
2022/12/11 20:51:56;;;;;;;;;;;2.10;99.90;;;;;;8356846;28;19974;-71
2022/12/11 20:55:58;;;;;;;;;;;2.10;99.90;;;;;;8359334;28;19924;-70
2022/12/11 20:59:59;;;;;;;;;;;2.10;99.90;;;;;;8357977;28;19989;-71
2022/12/11 21:04:01;;;;;;;;;;;2.10;99.90;;;;;;8363330;28;19968;-70
2022/12/11 21:08:03;;;;;;;;;;;2.10;99.90;;;;;;8359056;28;19979;-70
2022/12/11 21:12:05;;;;;;;;;;;2.10;99.90;;;;;;8353560;28;19928;-70
2022/12/11 21:16:07;;;;;;;;;;;2.10;99.90;;;;;;8367323;28;19925;-71
2022/12/11 21:20:09;;;;;;;;;;;2.00;99.90;;;;;;8337067;28;19932;-70
2022/12/11 21:24:15;;;;;;;;;;;2.00;99.90;;;;;;8359303;28;19925;-70
2022/12/11 21:28:17;;;;;;;;;;;2.00;99.90;;;;;;8359546;28;20405;-71
2022/12/11 21:32:18;;;;;;;;;;;2.00;99.90;;;;;;8357897;28;19931;-70
2022/12/11 21:36:20;;;;;;;;;;;2.00;99.90;;;;;;8359564;28;19929;-70
2022/12/11 21:40:22;;;;;;;;;;;2.10;99.90;;;;;;8359391;28;20039;-71
2022/12/11 21:44:23;;;;;;;;;;;2.10;99.90;;;;;;8300425;28;1749108;-71
2022/12/11 21:48:45;;;;;;;;;;;2.00;99.90;;;;;;8359002;28;19932;-70
2022/12/11 21:52:47;;;;;;;;;;;2.00;99.90;;;;;;8340490;28;20360;-70
2022/12/11 21:56:49;;;;;;;;;;;2.00;99.90;;;;;;8360107;28;19966;-70
2022/12/11 22:00:50;;;;;;;;;;;2.00;99.90;;;;;;8343154;28;19979;-70
2022/12/11 22:04:52;;;;;;;;;;;2.00;99.90;;;;;;8369753;28;19928;-70
2022/12/11 22:08:54;;;;;;;;;;;2.00;99.90;;;;;;8377622;28;19940;-70
2022/12/11 22:12:55;;;;;;;;;;;2.00;99.90;;;;;;8390803;28;19936;-71
2022/12/11 22:16:57;;;;;;;;;;;2.00;99.90;;;;;;8386656;28;19932;-71
2022/12/11 22:20:59;;;;;;;;;;;2.00;99.90;;;;;;8370331;28;19977;-70
2022/12/11 22:25:02;;;;;;;;;;;2.00;99.90;;;;;;8376949;28;20277;-70
2022/12/11 22:29:04;;;;;;;;;;;2.00;99.90;;;;;;8389421;28;20022;-71
2022/12/11 22:33:06;;;;;;;;;;;2.00;99.90;;;;;;8387929;28;19925;-70
2022/12/11 22:37:07;;;;;;;;;;;2.00;99.90;;;;;;8379641;28;19931;-70
2022/12/11 22:41:11;;;;;;;;;;;1.90;99.90;;;;;;8374514;28;20295;-70
2022/12/11 22:45:15;;;;;;;;;;;1.90;99.90;;;;;;8390163;28;19964;-71
2022/12/11 22:49:18;;;;;;;;;;;2.00;99.90;;;;;;8378166;28;19983;-71
2022/12/11 22:53:19;;;;;;;;;;;2.00;99.90;;;;;;8381707;28;19935;-70
2022/12/11 22:57:21;;;;;;;;;;;2.00;99.90;;;;;;8385683;28;19980;-70
2022/12/11 23:01:24;;;;;;;;;;;2.00;99.90;;;;;;8381866;28;20051;-70
2022/12/11 23:05:25;;;;;;;;;;;2.00;99.90;;;;;;8370559;28;19947;-70
2022/12/11 23:09:27;;;;;;;;;;;2.00;99.90;;;;;;8397989;28;20395;-71
2022/12/11 23:13:29;;;;;;;;;;;2.00;99.90;;;;;;8393889;28;20027;-71
2022/12/11 23:17:30;;;;;;;;;;;2.00;99.90;;;;;;8397247;28;19979;-70
2022/12/11 23:21:32;;;;;;;;;;;2.00;99.90;;;;;;8385215;28;19928;-71
2022/12/11 23:25:34;;;;;;;;;;;2.00;99.90;;;;;;8389607;28;19925;-70
2022/12/11 23:29:35;;;;;;;;;;;2.00;99.90;;;;;;8375340;28;19934;-70
2022/12/11 23:33:37;;;;;;;;;;;2.00;99.90;;;;;;8381772;28;19954;-71
2022/12/11 23:37:39;;;;;;;;;;;2.00;99.90;;;;;;8397253;28;19968;-71
2022/12/11 23:41:40;;;;;;;;;;;2.00;99.90;;;;;;8397014;28;19931;-71
2022/12/11 23:45:43;;;;;;;;;;;1.90;99.90;;;;;;8373975;28;19925;-70
2022/12/11 23:49:45;;;;;;;;;;;1.90;99.90;;;;;;8383609;28;19963;-71
2022/12/11 23:53:47;;;;;;;;;;;1.90;99.90;;;;;;8384131;28;19924;-71
2022/12/11 23:57:48;;;;;;;;;;;1.90;99.90;;;;;;8355654;28;19925;-70
